Time;durP1;ratioP1;P1;durP2;ratioP2;P2;SDS_P1;SDS_P2;PMS_P1;PMS_P2;Temp;Humidity;BMP_temperature;BMP_pressure;BME280_temperature;BME280_humidity;BME280_pressure;Samples;Min_cycle;Max_cycle;Signal;HPM_P1;HPM_P2
2023/09/28 00:01:13;;;;;;;11.17;4.30;;;;;;;17.97;74.44;95461.84;5047086;28;20225;-75
2023/09/28 00:03:38;;;;;;;17.37;4.80;;;;;;;17.70;73.67;95468.63;5064635;28;20230;-75
2023/09/28 00:06:04;;;;;;;13.07;4.37;;;;;;;17.65;74.40;95459.78;5049201;28;20318;-75
2023/09/28 00:08:29;;;;;;;10.30;4.47;;;;;;;17.74;74.60;95455.75;5047749;28;20285;-75
2023/09/28 00:10:55;;;;;;;13.33;4.70;;;;;;;17.68;75.30;95460.13;5067351;28;20307;-74
2023/09/28 00:13:20;;;;;;;17.60;5.00;;;;;;;17.36;75.73;95451.66;5068128;28;20228;-75
2023/09/28 00:15:46;;;;;;;12.10;4.40;;;;;;;17.33;76.18;95452.13;5049160;28;20229;-74
2023/09/28 00:18:12;;;;;;;10.47;4.87;;;;;;;17.48;75.99;95455.13;5047466;28;20233;-74
2023/09/28 00:20:38;;;;;;;10.97;4.60;;;;;;;17.37;76.81;95453.28;5045722;28;20225;-75
2023/09/28 00:23:04;;;;;;;13.67;4.60;;;;;;;17.29;76.91;95443.03;5052402;28;20339;-75
2023/09/28 00:25:29;;;;;;;12.10;4.90;;;;;;;17.23;77.33;95448.41;5067333;28;20221;-74
2023/09/28 00:27:55;;;;;;;15.20;5.07;;;;;;;17.32;77.04;95450.50;5063118;28;20224;-74
2023/09/28 00:30:22;;;;;;;12.27;4.67;;;;;;;17.28;77.30;95449.34;5067142;28;20299;-75
2023/09/28 00:32:54;;;;;;;11.97;4.73;;;;;;;17.06;77.95;95450.09;5051017;28;20962;-74
2023/09/28 00:35:20;;;;;;;14.27;5.10;;;;;;;16.93;78.38;95443.19;5049179;28;20235;-75
2023/09/28 00:37:46;;;;;;;13.73;5.07;;;;;;;17.10;78.22;95441.47;5068165;28;20243;-75
2023/09/28 00:40:18;;;;;;;16.67;5.20;;;;;;;16.94;78.43;95441.31;5064549;28;20771;-74
2023/09/28 00:42:45;;;;;;;11.47;4.67;;;;;;;16.67;80.75;95440.91;5057157;28;20217;-75
2023/09/28 00:45:10;;;;;;;11.50;5.00;;;;;;;16.78;80.31;95440.16;5062910;28;20234;-74
2023/09/28 00:47:38;;;;;;;19.77;5.00;;;;;;;16.71;80.15;95432.31;5024997;28;20228;-75
2023/09/28 00:50:09;;;;;;;10.80;5.07;;;;;;;16.77;80.67;95441.16;5042296;28;20213;-74
2023/09/28 00:52:38;;;;;;;15.17;5.10;;;;;;;16.62;81.88;95433.63;5025030;28;20255;-75
2023/09/28 00:55:05;;;;;;;11.23;4.67;;;;;;;16.95;80.16;95438.47;5052576;28;20220;-75
2023/09/28 00:57:33;;;;;;;10.30;4.57;;;;;;;16.99;80.38;95446.75;5078137;28;20274;-75
2023/09/28 01:00:00;;;;;;;12.53;4.87;;;;;;;17.03;80.53;95450.56;5030816;28;20244;-75
2023/09/28 01:02:26;;;;;;;9.67;4.53;;;;;;;16.99;80.49;95449.41;5046088;28;20226;-75
2023/09/28 01:04:52;;;;;;;11.30;5.23;;;;;;;16.96;80.53;95441.91;5067566;28;20557;-75
2023/09/28 01:07:28;;;;;;;15.07;5.27;;;;;;;17.11;80.43;95444.94;5054210;28;20224;-74
2023/09/28 01:09:54;;;;;;;12.17;4.87;;;;;;;17.13;80.58;95442.88;5051044;28;20234;-76
2023/09/28 01:12:20;;;;;;;14.63;5.10;;;;;;;17.07;80.62;95441.16;5061289;28;20296;-74
2023/09/28 01:14:50;;;;;;;9.70;5.07;;;;;;;17.02;81.09;95433.09;5078405;28;20235;-75
2023/09/28 01:17:16;;;;;;;13.67;5.00;;;;;;;16.93;80.66;95437.91;5052113;28;20224;-75
2023/09/28 01:19:43;;;;;;;9.03;4.53;;;;;;;16.94;80.71;95436.84;5047126;28;20234;-74
2023/09/28 01:22:13;;;;;;;10.73;5.07;;;;;;;16.68;81.89;95439.88;5062726;28;20231;-74
2023/09/28 01:24:39;;;;;;;12.43;4.83;;;;;;;16.40;82.48;95435.13;5052008;28;20733;-75
2023/09/28 01:27:06;;;;;;;11.50;5.23;;;;;;;16.30;83.26;95441.97;5047275;28;20228;-74
2023/09/28 01:29:32;;;;;;;10.13;4.67;;;;;;;16.36;83.50;95431.31;5068354;28;20301;-75
2023/09/28 01:31:57;;;;;;;15.67;5.10;;;;;;;16.49;83.77;95431.16;5082261;28;20757;-74
2023/09/28 01:34:23;;;;;;;12.17;5.43;;;;;;;16.62;83.24;95436.28;5065154;28;20228;-75
2023/09/28 01:36:48;;;;;;;12.67;5.00;;;;;;;16.39;84.25;95432.69;5063649;28;20281;-75
2023/09/28 01:39:14;;;;;;;14.33;5.33;;;;;;;16.57;83.13;95430.06;5044036;28;20236;-74
2023/09/28 01:41:39;;;;;;;12.93;5.27;;;;;;;16.46;83.16;95438.69;5055903;28;20231;-75
2023/09/28 01:44:05;;;;;;;10.93;5.10;;;;;;;16.65;83.35;95438.47;5070137;28;20235;-74
2023/09/28 01:46:31;;;;;;;12.17;5.20;;;;;;;16.63;83.25;95442.38;5053464;28;20220;-74
2023/09/28 01:48:56;;;;;;;14.40;5.30;;;;;;;16.48;84.38;95436.66;5060703;28;20231;-75
2023/09/28 01:51:22;;;;;;;10.20;5.03;;;;;;;16.31;85.22;95440.94;5076552;28;20220;-75
2023/09/28 01:53:48;;;;;;;13.33;5.03;;;;;;;16.30;84.59;95444.59;5053504;28;20284;-74
2023/09/28 01:56:13;;;;;;;13.50;5.27;;;;;;;16.52;83.82;95443.97;5066058;28;20311;-74
2023/09/28 01:58:39;;;;;;;10.83;4.73;;;;;;;16.44;84.33;95440.75;5050061;28;20220;-75
2023/09/28 02:01:04;;;;;;;20.10;5.30;;;;;;;16.03;85.75;95454.66;5073965;28;20232;-75
2023/09/28 02:03:29;;;;;;;11.20;5.13;;;;;;;16.19;85.40;95448.81;5048354;28;20694;-76
2023/09/28 02:05:55;;;;;;;17.17;5.20;;;;;;;16.00;85.82;95444.56;5063062;28;20236;-77
2023/09/28 02:08:20;;;;;;;11.60;5.50;;;;;;;15.90;86.60;95444.25;5062406;28;20690;-77
2023/09/28 02:10:46;;;;;;;10.30;5.33;;;;;;;16.09;85.67;95441.41;5052617;28;20219;-77
2023/09/28 02:13:11;;;;;;;14.50;5.20;;;;;;;15.63;87.11;95438.44;5032899;28;20228;-77
2023/09/28 02:15:37;;;;;;;11.27;5.00;;;;;;;15.51;87.98;95440.16;5064730;28;20228;-76
2023/09/28 02:18:04;;;;;;;11.07;5.00;;;;;;;15.78;86.90;95446.00;5060317;28;20782;-77
2023/09/28 02:20:31;;;;;;;10.90;5.20;;;;;;;15.65;87.39;95444.28;5062832;28;20284;-77
2023/09/28 02:22:57;;;;;;;10.73;5.10;;;;;;;15.57;87.83;95449.84;5051663;28;20226;-77
2023/09/28 02:25:26;;;;;;;12.37;5.17;;;;;;;15.68;87.42;95451.78;5045340;28;20221;-76
2023/09/28 02:27:52;;;;;;;9.40;5.17;;;;;;;15.76;86.92;95446.19;5062685;28;20229;-77
2023/09/28 02:30:19;;;;;;;8.93;4.90;;;;;;;15.68;87.42;95450.97;5045407;28;20379;-77
2023/09/28 02:32:45;;;;;;;12.70;5.00;;;;;;;15.82;86.51;95450.63;5039961;28;20237;-76
2023/09/28 02:35:13;;;;;;;10.17;5.33;;;;;;;15.88;86.90;95452.38;5042924;28;20228;-76
2023/09/28 02:37:39;;;;;;;11.63;5.10;;;;;;;15.71;87.44;95456.63;5035316;28;20725;-75
2023/09/28 02:40:05;;;;;;;12.57;5.00;;;;;;;15.78;86.87;95461.84;5067647;28;20223;-75
2023/09/28 02:42:31;;;;;;;10.97;5.30;;;;;;;15.75;87.64;95459.63;5062974;28;20233;-76
2023/09/28 02:44:57;;;;;;;8.73;5.07;;;;;;;15.94;86.90;95458.63;5052022;28;20232;-74
2023/09/28 02:47:23;;;;;;;10.77;5.27;;;;;;;15.90;87.16;95462.72;5071913;28;20222;-78
2023/09/28 02:49:48;;;;;;;12.40;5.53;;;;;;;15.94;87.55;95466.53;5064639;28;20228;-77
2023/09/28 02:52:14;;;;;;;12.33;5.27;;;;;;;15.96;86.70;95467.94;5073921;28;20229;-76
2023/09/28 02:54:39;;;;;;;15.07;5.10;;;;;;;15.95;86.77;95461.03;5069341;28;20236;-78
2023/09/28 02:57:05;;;;;;;13.13;5.00;;;;;;;16.07;86.75;95472.47;5067442;28;20279;-75
2023/09/28 02:59:31;;;;;;;13.70;5.70;;;;;;;16.07;86.36;95472.47;5059376;28;20224;-78
2023/09/28 03:01:56;;;;;;;16.30;5.20;;;;;;;15.83;87.53;95470.72;5052518;28;20274;-78
2023/09/28 03:04:22;;;;;;;12.00;5.67;;;;;;;15.73;87.84;95469.59;5066141;28;20375;-78
2023/09/28 03:06:48;;;;;;;13.23;5.33;;;;;;;15.83;87.61;95473.38;5056091;28;20221;-78
2023/09/28 03:09:16;;;;;;;16.10;5.53;;;;;;;15.52;88.63;95476.09;5056383;28;20225;-77
2023/09/28 03:11:42;;;;;;;12.77;5.73;;;;;;;15.33;89.41;95466.47;5063444;28;20232;-77
2023/09/28 03:14:08;;;;;;;11.40;5.30;;;;;;;15.56;88.70;95469.34;5060529;28;20232;-77
2023/09/28 03:16:34;;;;;;;10.10;5.50;;;;;;;15.50;88.38;95465.72;5069928;28;20228;-78
2023/09/28 03:19:00;;;;;;;13.20;5.23;;;;;;;15.27;89.23;95473.41;5064591;28;20625;-77
2023/09/28 03:21:29;;;;;;;15.60;6.00;;;;;;;15.41;89.17;95467.00;5070623;28;20681;-77
2023/09/28 03:23:58;;;;;;;12.40;5.40;;;;;;;15.32;89.16;95462.22;5046398;28;20619;-78
2023/09/28 03:26:24;;;;;;;9.97;5.43;;;;;;;15.33;89.32;95464.63;5060124;28;20618;-77
2023/09/28 03:28:50;;;;;;;15.47;6.13;;;;;;;15.39;88.93;95465.59;5071402;28;20249;-78
2023/09/28 03:31:15;;;;;;;16.10;6.03;;;;;;;15.42;89.16;95462.53;5068659;28;20233;-78
2023/09/28 03:33:41;;;;;;;15.60;5.60;;;;;;;15.49;89.25;95465.97;5033612;28;20232;-76
2023/09/28 03:36:06;;;;;;;15.20;5.90;;;;;;;15.60;88.51;95464.44;5052783;28;20232;-75
2023/09/28 03:38:33;;;;;;;17.13;6.10;;;;;;;15.72;88.60;95471.44;5060258;28;20224;-76
2023/09/28 03:40:58;;;;;;;13.00;5.90;;;;;;;15.75;87.74;95464.91;5049277;28;20232;-75
2023/09/28 03:43:24;;;;;;;14.00;5.63;;;;;;;15.74;88.16;95464.09;5075752;28;20237;-75
2023/09/28 03:45:50;;;;;;;14.50;6.17;;;;;;;15.45;89.07;95472.69;5065377;28;20235;-76
2023/09/28 03:48:15;;;;;;;14.73;6.10;;;;;;;15.46;89.23;95469.03;5073933;28;20228;-77
2023/09/28 03:50:41;;;;;;;18.20;5.97;;;;;;;15.55;88.74;95480.91;5064519;28;20225;-77
2023/09/28 03:53:06;;;;;;;13.97;5.70;;;;;;;15.45;89.39;95472.69;5079512;28;20720;-77
2023/09/28 03:55:32;;;;;;;14.03;6.27;;;;;;;15.38;89.73;95471.91;5070327;28;20283;-78
2023/09/28 03:58:03;;;;;;;14.50;6.30;;;;;;;15.39;90.10;95473.50;5063433;28;20232;-77
2023/09/28 04:00:30;;;;;;;12.80;5.80;;;;;;;15.61;88.96;95471.34;5072385;28;20225;-77
2023/09/28 04:02:55;;;;;;;13.10;6.23;;;;;;;15.57;88.62;95476.22;5038209;28;20225;-78
2023/09/28 04:05:23;;;;;;;14.43;6.23;;;;;;;15.64;88.27;95468.28;5052001;28;20264;-77
2023/09/28 04:07:49;;;;;;;17.47;6.40;;;;;;;15.63;88.37;95467.44;5050714;28;20237;-77
2023/09/28 04:10:15;;;;;;;17.53;6.70;;;;;;;15.55;88.40;95470.34;5052070;28;20249;-77
2023/09/28 04:12:40;;;;;;;12.30;5.97;;;;;;;15.31;89.71;95471.13;5067420;28;20275;-77
2023/09/28 04:15:07;;;;;;;20.33;6.43;;;;;;;15.42;89.44;95473.91;5053881;28;20270;-78
2023/09/28 04:17:34;;;;;;;14.60;6.13;;;;;;;15.59;89.65;95470.75;5037351;28;20220;-77
2023/09/28 04:20:00;;;;;;;17.57;6.50;;;;;;;15.52;89.37;95470.81;5050904;28;20345;-77
2023/09/28 04:22:26;;;;;;;13.47;6.33;;;;;;;15.41;89.95;95471.47;5066015;28;20754;-76
2023/09/28 04:24:51;;;;;;;20.00;6.93;;;;;;;15.41;90.04;95468.81;5048389;28;20240;-77
2023/09/28 04:27:17;;;;;;;16.87;6.43;;;;;;;15.25;90.81;95472.00;5053664;28;20221;-76
2023/09/28 04:29:42;;;;;;;19.67;6.17;;;;;;;15.12;91.77;95478.19;5047708;28;20266;-77
2023/09/28 04:32:10;;;;;;;20.93;6.57;;;;;;;15.05;91.64;95468.69;5047252;28;20301;-77
2023/09/28 04:34:36;;;;;;;17.83;6.40;;;;;;;15.30;92.29;95477.44;5055437;28;20244;-76
2023/09/28 04:37:03;;;;;;;13.47;6.33;;;;;;;15.17;91.25;95483.63;5060413;28;20229;-74
2023/09/28 04:39:29;;;;;;;12.30;6.40;;;;;;;15.13;91.85;95484.25;5046340;28;20228;-74
2023/09/28 04:41:55;;;;;;;19.70;6.50;;;;;;;15.27;91.11;95483.13;5068022;28;20235;-75
2023/09/28 04:44:21;;;;;;;15.97;6.70;;;;;;;15.10;91.86;95485.50;5050651;28;20220;-75
2023/09/28 04:46:48;;;;;;;20.37;7.10;;;;;;;15.23;91.58;95495.16;5057586;28;20232;-75
2023/09/28 04:49:14;;;;;;;16.60;6.73;;;;;;;15.30;91.18;95502.00;5059756;28;20727;-75
2023/09/28 04:51:39;;;;;;;17.30;6.80;;;;;;;15.52;89.84;95493.75;5042711;28;20234;-75
2023/09/28 04:54:05;;;;;;;17.77;6.77;;;;;;;15.26;91.70;95506.06;5063421;28;20228;-75
2023/09/28 04:56:33;;;;;;;16.30;6.97;;;;;;;15.42;90.52;95499.47;5063557;28;20228;-75
2023/09/28 04:58:59;;;;;;;16.93;7.23;;;;;;;15.58;90.18;95498.97;5066105;28;20229;-75
2023/09/28 05:01:25;;;;;;;17.70;6.57;;;;;;;15.48;90.57;95502.09;5065216;28;20283;-76
2023/09/28 05:03:51;;;;;;;18.87;7.00;;;;;;;15.76;90.40;95498.22;5063820;28;20231;-75
2023/09/28 05:06:16;;;;;;;31.57;14.50;;;;;;;15.79;90.35;95508.31;5039896;28;20227;-75
2023/09/28 05:08:42;;;;;;;19.97;7.30;;;;;;;15.96;89.56;95504.09;5045541;28;20694;-75
2023/09/28 05:11:08;;;;;;;21.63;7.57;;;;;;;16.02;89.56;95505.88;5070525;28;20320;-75
2023/09/28 05:13:35;;;;;;;20.60;7.93;;;;;;;16.11;89.16;95508.00;5060760;28;20228;-75
2023/09/28 05:16:00;;;;;;;20.83;7.93;;;;;;;16.16;89.82;95508.16;5064182;28;20285;-76
2023/09/28 05:18:25;;;;;;;21.67;7.90;;;;;;;16.24;89.67;95500.97;5050703;28;20953;-75
2023/09/28 05:20:51;;;;;;;18.97;7.97;;;;;;;16.37;88.39;95506.91;5052838;28;20236;-75
2023/09/28 05:23:16;;;;;;;23.63;8.33;;;;;;;16.54;88.75;95512.44;5089991;28;20227;-75
2023/09/28 05:25:42;;;;;;;20.83;7.67;;;;;;;16.51;89.24;95511.03;5041309;28;20220;-75
2023/09/28 05:28:08;;;;;;;27.93;8.43;;;;;;;16.55;87.73;95514.06;5059710;28;20236;-75
2023/09/28 05:30:35;;;;;;;25.27;7.67;;;;;;;16.70;87.37;95514.47;5055813;23;20253;-78
2023/09/28 05:33:01;;;;;;;25.60;8.13;;;;;;;16.70;87.89;95514.47;5009188;28;20288;-78
2023/09/28 05:35:44;;;;;;;16.87;7.33;;;;;;;16.71;88.02;95514.25;5029313;28;20230;-77
2023/09/28 05:38:10;;;;;;;21.73;7.47;;;;;;;16.79;87.03;95513.94;5027912;28;20990;-78
2023/09/28 05:40:36;;;;;;;21.07;7.07;;;;;;;16.83;85.95;95523.06;5010684;28;20321;-77
2023/09/28 05:43:01;;;;;;;15.43;6.73;;;;;;;16.83;85.30;95523.06;5029017;28;20236;-77
2023/09/28 05:45:38;;;;;;;14.40;5.27;;;;;;;16.97;77.71;95526.31;5026304;28;20268;-77
2023/09/28 05:48:04;;;;;;;18.13;6.53;;;;;;;16.98;84.20;95527.13;5030471;28;20710;-76
2023/09/28 05:50:29;;;;;;;13.90;6.07;;;;;;;17.06;82.98;95519.69;5012597;28;20230;-77
2023/09/28 05:52:56;;;;;;;13.00;5.83;;;;;;;17.12;82.03;95525.94;5010693;28;20226;-77
2023/09/28 05:55:24;;;;;;;16.03;5.73;;;;;;;17.20;82.64;95528.22;5031536;28;20236;-77
2023/09/28 05:57:51;;;;;;;21.43;7.03;;;;;;;17.15;84.29;95525.47;5012132;28;20280;-77
2023/09/28 06:00:17;;;;;;;13.13;6.27;;;;;;;17.24;82.72;95526.78;5028859;28;20241;-79
2023/09/28 06:02:43;;;;;;;13.97;5.53;;;;;;;17.28;77.30;95531.38;5010411;28;20225;-77
2023/09/28 06:05:10;;;;;;;13.97;5.27;;;;;;;17.25;78.94;95526.53;5012993;28;20230;-79
2023/09/28 06:07:35;;;;;;;11.97;5.43;;;;;;;17.26;80.38;95524.72;5000990;28;20732;-77
2023/09/28 06:10:02;;;;;;;15.70;5.50;;;;;;;17.37;80.09;95527.38;5015216;28;20231;-79
2023/09/28 06:12:29;;;;;;;11.87;5.10;;;;;;;17.39;78.41;95530.59;4999416;28;20233;-79
2023/09/28 06:14:55;;;;;;;17.33;5.40;;;;;;;17.45;78.09;95524.41;5014051;28;20852;-79
2023/09/28 06:17:21;;;;;;;13.77;5.30;;;;;;;17.50;76.33;95531.66;5035815;28;20230;-78
2023/09/28 06:19:46;;;;;;;20.20;5.73;;;;;;;17.58;74.65;95535.88;5002075;28;20287;-77
2023/09/28 06:22:12;;;;;;;16.67;5.50;;;;;;;17.56;73.67;95530.78;5040892;28;20237;-78
2023/09/28 06:24:38;;;;;;;17.63;5.50;;;;;;;17.57;73.48;95536.88;5018966;28;20360;-78
2023/09/28 06:27:04;;;;;;;14.90;5.90;;;;;;;17.54;75.12;95532.84;5037409;28;20225;-78
2023/09/28 06:29:32;;;;;;;19.50;6.27;;;;;;;17.69;74.65;95540.38;5017824;28;20328;-77
2023/09/28 06:31:57;;;;;;;15.47;5.57;;;;;;;17.69;75.22;95524.47;5016671;28;20286;-77
2023/09/28 06:34:23;;;;;;;12.77;5.80;;;;;;;17.69;75.87;95530.59;5037057;28;20234;-79
2023/09/28 06:36:52;;;;;;;17.83;5.60;;;;;;;17.82;74.02;95526.91;5004663;28;20233;-79
2023/09/28 06:39:18;;;;;;;14.60;5.47;;;;;;;18.00;73.16;95532.09;5004305;28;20229;-78
2023/09/28 06:41:44;;;;;;;13.30;5.50;;;;;;;17.97;74.64;95535.22;5016384;28;20245;-78
2023/09/28 06:44:09;;;;;;;16.60;5.53;;;;;;;17.94;74.68;95533.81;5016891;28;20233;-78
2023/09/28 06:46:35;;;;;;;17.17;5.77;;;;;;;17.99;75.02;95536.59;5033535;28;20242;-77
2023/09/28 06:49:01;;;;;;;17.50;5.30;;;;;;;18.07;73.67;95538.09;5018780;28;20224;-78
2023/09/28 06:51:27;;;;;;;20.50;9.87;;;;;;;18.13;73.56;95547.75;5037693;28;20234;-78
2023/09/28 06:53:52;;;;;;;21.57;7.07;;;;;;;18.16;74.38;95547.31;5014520;28;20652;-79
2023/09/28 06:56:20;;;;;;;10.07;4.80;;;;;;;18.20;72.59;95547.66;5015966;28;20323;-79
2023/09/28 06:58:46;;;;;;;14.43;4.83;;;;;;;18.17;71.91;95547.06;5033543;28;20236;-78
2023/09/28 07:01:12;;;;;;;15.30;4.93;;;;;;;18.27;72.94;95553.66;5014926;28;20226;-78
2023/09/28 07:03:38;;;;;;;21.33;4.97;;;;;;;18.36;71.52;95550.41;5015786;28;20229;-78
2023/09/28 07:06:05;;;;;;;15.00;4.80;;;;;;;18.35;71.42;95547.97;5000068;28;20222;-78
2023/09/28 07:08:31;;;;;;;15.57;4.33;;;;;;;18.41;71.53;95552.38;5031905;28;20308;-78
2023/09/28 07:10:57;;;;;;;13.40;4.90;;;;;;;18.49;72.80;95552.84;5019226;28;20312;-79
2023/09/28 07:13:23;;;;;;;15.57;4.67;;;;;;;18.52;72.34;95552.38;5033220;28;20694;-78
2023/09/28 07:15:49;;;;;;;11.73;4.50;;;;;;;18.57;71.53;95560.44;5011264;28;20238;-78
2023/09/28 07:18:15;;;;;;;12.10;4.10;;;;;;;18.56;72.29;95553.50;5016251;28;20226;-77
2023/09/28 07:20:40;;;;;;;14.10;4.37;;;;;;;18.66;71.88;95555.56;5028717;28;20329;-77
2023/09/28 07:23:07;;;;;;;13.70;4.20;;;;;;;18.62;73.63;95557.91;5031260;28;20761;-77
2023/09/28 07:25:32;;;;;;;12.37;4.50;;;;;;;18.73;71.38;95557.06;5014814;28;20221;-76
2023/09/28 07:27:58;;;;;;;19.50;4.83;;;;;;;18.81;71.06;95556.72;5017913;28;20229;-78
2023/09/28 07:30:23;;;;;;;16.37;4.60;;;;;;;18.89;70.01;95568.78;4995276;28;20687;-78
2023/09/28 07:32:49;;;;;;;18.03;4.30;;;;;;;18.97;70.55;95562.28;4995568;28;20251;-78
2023/09/28 07:35:15;;;;;;;21.70;4.50;;;;;;;19.03;70.70;95556.06;5011326;28;20257;-78
2023/09/28 07:37:42;;;;;;;17.63;4.10;;;;;;;19.08;71.27;95553.50;4999601;28;20225;-76
2023/09/28 07:40:08;;;;;;;10.77;4.23;;;;;;;19.10;71.64;95554.06;5032004;28;20656;-78
2023/09/28 07:42:34;;;;;;;18.70;4.23;;;;;;;19.16;70.28;95551.28;5013933;28;20237;-78
2023/09/28 07:44:59;;;;;;;17.83;4.10;;;;;;;19.19;69.48;95553.47;5026692;28;20226;-78
2023/09/28 07:47:25;;;;;;;12.63;4.27;;;;;;;19.21;70.76;95555.88;5014862;28;20677;-78
2023/09/28 07:49:53;;;;;;;13.93;4.33;;;;;;;19.28;70.17;95562.66;5018528;28;20230;-77
2023/09/28 07:52:19;;;;;;;17.30;4.70;;;;;;;19.38;69.94;95554.09;5002288;28;20833;-78
2023/09/28 07:54:44;;;;;;;15.37;4.00;;;;;;;19.43;69.98;95549.69;5018316;28;20389;-78
2023/09/28 07:57:10;;;;;;;14.37;4.43;;;;;;;19.31;69.22;95556.06;4996061;28;20234;-78
2023/09/28 07:59:35;;;;;;;12.53;4.00;;;;;;;19.37;70.75;95555.94;5011804;28;20222;-77
2023/09/28 08:02:02;;;;;;;11.97;3.80;;;;;;;19.42;69.63;95556.03;5016090;28;20320;-77
2023/09/28 08:04:27;;;;;;;14.07;3.77;;;;;;;19.49;68.32;95550.56;5014256;28;20225;-77
2023/09/28 08:06:55;;;;;;;13.23;3.60;;;;;;;19.57;69.15;95558.16;5007545;28;20283;-77
2023/09/28 08:09:20;;;;;;;14.33;4.07;;;;;;;19.59;67.59;95547.28;5016716;28;21058;-76
2023/09/28 08:11:48;;;;;;;12.60;4.27;;;;;;;19.54;67.93;95558.63;5029355;28;20234;-76
2023/09/28 08:14:15;;;;;;;17.20;4.50;;;;;;;19.60;67.24;95559.53;5029598;28;20694;-78
2023/09/28 08:16:42;;;;;;;14.10;4.00;;;;;;;19.66;67.47;95554.06;5011425;28;20265;-78
2023/09/28 08:19:08;;;;;;;9.07;3.73;;;;;;;19.78;66.83;95556.63;5015488;28;20726;-75
2023/09/28 08:21:37;;;;;;;9.40;3.20;;;;;;;19.82;64.46;95555.13;5015476;28;20619;-77
2023/09/28 08:24:03;;;;;;;9.43;3.50;;;;;;;19.87;65.50;95557.88;5011719;28;20280;-78
2023/09/28 08:26:30;;;;;;;10.70;3.40;;;;;;;19.89;66.71;95548.63;5011124;28;20256;-77
2023/09/28 08:28:57;;;;;;;10.63;3.33;;;;;;;19.87;65.57;95549.91;5030332;28;20309;-77
2023/09/28 08:31:23;;;;;;;9.20;3.67;;;;;;;19.75;67.33;95549.94;4996880;28;20229;-78
2023/09/28 08:33:49;;;;;;;10.37;3.60;;;;;;;19.81;66.77;95546.34;4998034;28;20228;-78
2023/09/28 08:36:15;;;;;;;10.53;3.60;;;;;;;19.93;66.79;95543.59;5015114;28;20226;-78
2023/09/28 08:38:40;;;;;;;7.57;3.60;;;;;;;19.99;66.61;95547.97;5010939;28;20660;-77
2023/09/28 08:41:06;;;;;;;13.93;3.93;;;;;;;20.12;64.99;95537.00;5014051;28;20746;-78
2023/09/28 08:43:36;;;;;;;11.70;3.57;;;;;;;20.14;64.94;95538.34;5029151;28;20320;-78
2023/09/28 08:46:04;;;;;;;11.17;3.60;;;;;;;20.13;66.46;95535.94;5000453;28;20230;-77
2023/09/28 08:48:31;;;;;;;8.93;3.87;;;;;;;20.13;64.80;95539.38;5016056;28;20225;-78
2023/09/28 08:51:03;;;;;;;8.73;3.87;;;;;;;20.12;65.54;95539.66;5009648;28;20246;-78
2023/09/28 08:53:29;;;;;;;12.37;3.67;;;;;;;20.15;65.84;95534.66;4999431;28;20236;-77
2023/09/28 08:55:54;;;;;;;8.17;3.83;;;;;;;20.16;65.32;95533.59;5011110;28;20351;-77
2023/09/28 08:58:20;;;;;;;12.10;3.87;;;;;;;20.32;65.70;95532.00;5018206;28;20225;-78
2023/09/28 09:00:46;;;;;;;9.73;3.50;;;;;;;20.40;65.44;95526.25;5017133;28;20237;-77
2023/09/28 09:03:11;;;;;;;14.07;3.90;;;;;;;20.45;65.21;95531.63;5012004;28;20232;-78
2023/09/28 09:05:39;;;;;;;9.20;3.67;;;;;;;20.59;65.93;95529.41;5017813;28;20272;-77
2023/09/28 09:08:05;;;;;;;14.67;4.00;;;;;;;20.74;63.82;95525.09;5014149;28;20333;-76
2023/09/28 09:10:30;;;;;;;9.57;3.73;;;;;;;20.81;63.47;95527.56;5000123;28;20238;-77
2023/09/28 09:12:56;;;;;;;14.00;3.90;;;;;;;20.94;64.02;95529.88;5033480;28;20260;-78
2023/09/28 09:15:21;;;;;;;12.27;3.80;;;;;;;20.99;64.70;95526.47;5013338;28;20236;-78
2023/09/28 09:17:47;;;;;;;11.90;3.70;;;;;;;21.11;63.76;95530.59;5033320;28;20685;-76
2023/09/28 09:20:12;;;;;;;14.47;4.00;;;;;;;21.18;63.78;95527.78;5017584;28;20282;-79
2023/09/28 09:22:38;;;;;;;16.87;4.13;;;;;;;21.28;63.23;95528.66;5030604;28;20230;-78
2023/09/28 09:25:05;;;;;;;15.73;4.03;;;;;;;21.36;62.75;95538.06;5017140;28;20230;-78
2023/09/28 09:27:31;;;;;;;10.80;3.70;;;;;;;21.47;62.45;95529.91;5032476;28;20253;-77
2023/09/28 09:30:06;;;;;;;21.30;3.90;;;;;;;21.53;62.84;95517.47;4999657;28;20767;-77
2023/09/28 09:32:31;;;;;;;17.50;3.83;;;;;;;21.61;62.84;95522.34;5007997;28;20612;-79
2023/09/28 09:34:57;;;;;;;14.20;3.73;;;;;;;21.66;62.28;95521.56;4996770;28;20248;-78
2023/09/28 09:37:23;;;;;;;10.17;3.40;;;;;;;21.71;61.96;95521.63;5015123;28;20226;-77
2023/09/28 09:39:49;;;;;;;15.73;3.93;;;;;;;21.75;62.15;95515.53;5000317;28;20225;-79
2023/09/28 09:42:26;;;;;;;12.87;4.17;;;;;;;21.75;61.55;95514.72;5030700;28;20225;-78
2023/09/28 09:44:52;;;;;;;13.40;3.90;;;;;;;21.79;62.34;95516.63;5013482;28;20233;-76
2023/09/28 09:47:19;;;;;;;11.27;4.07;;;;;;;22.14;61.62;95519.56;5017660;28;20279;-77
2023/09/28 09:49:45;;;;;;;10.03;3.97;;;;;;;22.10;61.47;95512.34;5027386;28;20240;-78
2023/09/28 09:52:10;;;;;;;9.37;3.90;;;;;;;22.07;61.70;95512.84;5034275;28;20233;-79
2023/09/28 09:54:36;;;;;;;10.60;3.70;;;;;;;21.92;62.13;95505.56;5015731;28;20229;-78
2023/09/28 09:57:01;;;;;;;14.23;4.43;;;;;;;21.98;62.07;95506.38;5012036;28;20234;-77
2023/09/28 09:59:27;;;;;;;12.23;4.53;;;;;;;22.05;62.18;95504.31;5017245;28;20233;-78
2023/09/28 10:01:53;;;;;;;17.10;4.17;;;;;;;21.93;62.05;95503.69;4999742;28;20234;-78
2023/09/28 10:04:20;;;;;;;12.37;4.13;;;;;;;21.85;62.96;95498.84;5029016;28;20264;-71
2023/09/28 10:06:47;;;;;;;16.30;3.87;;;;;;;21.83;63.79;95503.59;5015129;28;20266;-72
2023/09/28 10:09:15;;;;;;;10.23;3.93;;;;;;;21.63;64.99;95496.25;5016042;28;20259;-72
2023/09/28 10:11:41;;;;;;;10.67;4.20;;;;;;;21.52;66.21;95499.06;5009303;28;20617;-72
2023/09/28 10:14:10;;;;;;;12.13;4.00;;;;;;;21.48;66.68;95499.56;5013709;28;20237;-71
2023/09/28 10:16:36;;;;;;;18.20;4.70;;;;;;;21.44;66.46;95508.31;5011520;28;20230;-72
2023/09/28 10:19:04;;;;;;;12.53;4.00;;;;;;;21.53;66.66;95496.16;5024485;28;20283;-71
2023/09/28 10:21:34;;;;;;;10.27;4.40;;;;;;;21.58;66.29;95495.38;5017257;28;20227;-72
2023/09/28 10:24:07;;;;;;;13.27;4.13;;;;;;;21.62;67.13;95491.94;5026815;28;20926;-71
2023/09/28 10:26:33;;;;;;;18.83;4.50;;;;;;;21.61;66.59;95500.22;5005170;28;20230;-72
2023/09/28 10:29:05;;;;;;;10.40;3.93;;;;;;;21.52;66.81;95501.75;5014263;28;20232;-70
2023/09/28 10:31:54;;;;;;;10.77;3.90;;;;;;;21.46;66.51;95495.56;4982060;28;20336;-71
2023/09/28 10:34:20;;;;;;;12.50;4.13;;;;;;;21.45;67.04;95497.41;4983264;28;20233;-71
2023/09/28 10:37:10;;;;;;;12.23;3.90;;;;;;;21.57;66.03;95494.56;5028449;28;20269;-72
2023/09/28 10:39:57;;;;;;;10.03;3.77;;;;;;;21.63;65.90;95490.91;5042946;28;20333;-72
2023/09/28 10:42:23;;;;;;;10.13;3.97;;;;;;;21.61;65.10;95482.38;5027699;28;20232;-72
2023/09/28 10:44:50;;;;;;;10.37;4.07;;;;;;;21.64;65.72;95484.50;5016144;28;20257;-71
2023/09/28 10:47:16;;;;;;;11.03;4.17;;;;;;;21.61;65.36;95474.38;5009318;28;20230;-72
2023/09/28 10:49:41;;;;;;;9.33;3.80;;;;;;;21.64;65.54;95483.72;5023564;28;20257;-72
2023/09/28 10:52:09;;;;;;;9.73;3.70;;;;;;;21.65;65.11;95474.66;5014231;28;20306;-71
2023/09/28 10:54:34;;;;;;;9.30;4.00;;;;;;;21.86;64.39;95473.78;5009366;28;20233;-72
2023/09/28 10:57:02;;;;;;;10.00;3.63;;;;;;;22.00;65.03;95474.94;5010847;28;20778;-73
2023/09/28 10:59:28;;;;;;;9.67;3.80;;;;;;;22.06;64.65;95471.25;5019497;28;20226;-73
2023/09/28 11:01:54;;;;;;;12.00;3.80;;;;;;;22.09;65.43;95465.41;4995766;28;20724;-73
2023/09/28 11:04:19;;;;;;;12.00;4.27;;;;;;;22.04;64.33;95470.72;5014517;28;20240;-72
2023/09/28 11:06:45;;;;;;;10.80;4.03;;;;;;;22.02;64.68;95465.63;5015562;28;20233;-72
2023/09/28 11:09:11;;;;;;;13.67;4.17;;;;;;;21.92;65.57;95467.44;5012753;28;20229;-73
2023/09/28 11:11:39;;;;;;;9.53;4.07;;;;;;;21.98;66.53;95455.72;5014878;28;20248;-74
2023/09/28 11:14:05;;;;;;;11.87;4.00;;;;;;;21.97;64.82;95462.91;5015876;28;20768;-74
2023/09/28 11:16:34;;;;;;;15.53;3.90;;;;;;;22.04;64.48;95460.06;5012560;28;20325;-73
2023/09/28 11:19:00;;;;;;;8.53;3.80;;;;;;;21.98;65.17;95448.53;5009128;28;20236;-73
2023/09/28 11:21:29;;;;;;;17.07;4.30;;;;;;;22.03;65.44;95463.78;5014361;28;20238;-73
2023/09/28 11:23:54;;;;;;;12.27;5.80;;;;;;;22.09;65.00;95468.09;5029685;28;20234;-74